createdAt,value
2022-10-11T00:01:25.236Z,2.25
2022-10-11T00:06:27.869Z,2.03
2022-10-11T00:11:31.691Z,1.98
2022-10-11T00:16:34.013Z,2.28
2022-10-11T00:21:36.421Z,2.50
2022-10-11T00:26:44.371Z,2.13
2022-10-11T00:31:48.791Z,2.40
2022-10-11T00:36:51.469Z,1.77
2022-10-11T00:41:55.573Z,1.85
2022-10-11T00:47:00.622Z,2.10
2022-10-11T00:52:06.874Z,1.70
2022-10-11T00:57:14.786Z,1.70
2022-10-11T01:02:19.550Z,1.70
2022-10-11T01:07:22.014Z,1.77
2022-10-11T01:12:29.659Z,2.00
2022-10-11T01:17:43.539Z,2.05
2022-10-11T01:23:14.823Z,1.90
2022-10-11T01:28:39.956Z,1.90
2022-10-11T01:33:52.231Z,1.70
2022-10-11T01:39:03.760Z,1.90
2022-10-11T01:44:11.830Z,1.80
2022-10-11T01:49:19.284Z,1.83
2022-10-11T01:55:07.982Z,1.90
2022-10-11T02:00:23.658Z,1.88
2022-10-11T02:05:35.627Z,2.08
2022-10-11T02:10:45.766Z,1.80
2022-10-11T02:15:50.108Z,1.80
2022-10-11T02:20:56.947Z,2.03
2022-10-11T02:26:00.095Z,2.13
2022-10-11T02:31:05.403Z,1.90
2022-10-11T02:36:16.182Z,2.08
2022-10-11T02:41:23.480Z,1.92
2022-10-11T02:46:27.844Z,1.90
2022-10-11T02:51:33.345Z,1.98
2022-10-11T02:56:35.875Z,1.70
2022-10-11T03:01:41.347Z,1.80
2022-10-11T03:06:45.840Z,1.75
2022-10-11T03:11:48.438Z,1.75
2022-10-11T03:16:53.610Z,1.80
2022-10-11T03:21:58.879Z,1.88
2022-10-11T03:27:01.236Z,1.80
2022-10-11T03:32:03.908Z,1.63
2022-10-11T03:37:07.900Z,1.85
2022-10-11T03:42:10.512Z,1.45
2022-10-11T03:47:16.212Z,2.05
2022-10-11T03:52:20.369Z,2.15
2022-10-11T03:57:22.849Z,1.83
2022-10-11T04:02:25.460Z,1.80
2022-10-11T04:07:29.929Z,1.33
2022-10-11T04:12:32.634Z,1.35
2022-10-11T04:17:35.132Z,1.65
2022-10-11T04:22:43.581Z,1.65
2022-10-11T04:27:46.103Z,1.50
2022-10-11T04:32:49.054Z,1.70
2022-10-11T04:37:52.933Z,1.67
2022-10-11T04:42:55.440Z,1.60
2022-10-11T04:47:57.776Z,1.58
2022-10-11T04:53:02.222Z,2.05
2022-10-11T04:58:05.028Z,2.00
2022-10-11T05:03:07.501Z,1.80
2022-10-11T05:08:12.343Z,1.77
2022-10-11T05:13:15.341Z,1.92
2022-10-11T05:18:18.059Z,2.13
2022-10-11T05:23:22.377Z,2.03
2022-10-11T05:28:25.045Z,1.58
2022-10-11T05:33:27.941Z,1.63
2022-10-11T05:38:32.502Z,1.67
2022-10-11T05:43:35.188Z,2.38
2022-10-11T05:48:38.044Z,1.90
2022-10-11T05:53:42.137Z,1.83
2022-10-11T05:58:45.096Z,7.88
2022-10-11T06:03:47.509Z,4.93
2022-10-11T06:08:51.841Z,1.88
2022-10-11T06:13:55.639Z,3.30
2022-10-11T06:18:58.979Z,2.33
2022-10-11T06:24:03.276Z,2.67
2022-10-11T06:29:06.192Z,2.40
2022-10-11T06:34:08.869Z,3.38
2022-10-11T06:39:13.681Z,12.43
2022-10-11T06:44:16.415Z,6.53
2022-10-11T06:49:23.143Z,2.50
2022-10-11T06:54:28.054Z,2.28
2022-10-11T06:59:30.704Z,1.60
2022-10-11T07:04:33.255Z,7.72
2022-10-11T07:09:37.617Z,3.25
2022-10-11T07:14:40.653Z,3.45
2022-10-11T07:19:43.197Z,2.38
2022-10-11T07:24:47.095Z,2.22
2022-10-11T07:29:50.000Z,1.70
2022-10-11T07:34:52.545Z,1.90
2022-10-11T07:39:57.532Z,1.45
2022-10-11T07:45:00.166Z,1.70
2022-10-11T07:50:02.640Z,2.65
2022-10-11T07:55:08.335Z,2.70
2022-10-11T08:00:12.155Z,2.90
2022-10-11T08:05:14.665Z,2.22
2022-10-11T08:10:19.011Z,2.00
2022-10-11T08:15:22.164Z,1.02
2022-10-11T08:20:24.747Z,2.10
2022-10-11T08:25:28.865Z,1.65
2022-10-11T08:30:31.527Z,1.63
2022-10-11T08:35:33.966Z,1.70
2022-10-11T08:40:38.049Z,1.52
2022-10-11T08:45:47.034Z,1.60
2022-10-11T08:50:52.623Z,1.63
2022-10-11T08:55:57.002Z,1.60
2022-10-11T09:01:01.455Z,1.80
2022-10-11T09:06:18.399Z,1.40
2022-10-11T09:11:31.438Z,1.45
2022-10-11T09:16:47.754Z,1.58
2022-10-11T09:22:00.422Z,1.38
2022-10-11T09:27:14.206Z,1.60
2022-10-11T09:32:18.899Z,2.67
2022-10-11T09:37:27.602Z,1.77
2022-10-11T09:42:31.732Z,1.90
2022-10-11T09:47:34.087Z,1.70
2022-10-11T09:52:49.561Z,3.38
2022-10-11T09:57:56.647Z,1.85
2022-10-11T10:03:01.506Z,3.17
2022-10-11T10:08:21.338Z,2.05
2022-10-11T10:13:29.607Z,1.35
2022-10-11T10:18:36.090Z,1.70
2022-10-11T10:28:57.584Z,1.30
2022-10-11T10:34:01.675Z,1.70
2022-10-11T10:39:12.294Z,1.45
2022-10-11T10:44:16.354Z,1.42
2022-10-11T10:49:55.483Z,1.55
2022-10-11T10:54:55.834Z,1.02
2022-10-11T11:00:11.915Z,1.50
2022-10-11T11:05:39.807Z,1.30
2022-10-11T11:10:49.744Z,1.40
2022-10-11T11:16:07.290Z,1.40
2022-10-11T11:21:26.649Z,1.15
2022-10-11T11:26:39.709Z,1.40
2022-10-11T11:32:02.900Z,1.85
2022-10-11T11:37:21.914Z,2.03
2022-10-11T11:42:31.638Z,1.73
2022-10-11T11:47:41.254Z,1.25
2022-10-11T11:52:47.626Z,1.10
2022-10-11T11:58:00.183Z,1.37
2022-10-11T12:03:12.559Z,0.98
2022-10-11T12:08:25.831Z,0.90
2022-10-11T12:13:34.750Z,0.70
2022-10-11T12:18:50.216Z,0.93
2022-10-11T12:23:54.499Z,0.90
2022-10-11T12:29:28.767Z,1.30
2022-10-11T12:39:49.849Z,1.00
2022-10-11T12:45:31.667Z,1.15
2022-10-11T12:50:49.200Z,2.17
2022-10-11T12:55:59.464Z,1.30
2022-10-11T13:01:29.497Z,1.08
2022-10-11T13:06:35.866Z,1.25
2022-10-11T13:11:46.631Z,1.20
2022-10-11T13:16:56.795Z,1.30
2022-10-11T13:22:03.957Z,1.08
2022-10-11T13:32:14.844Z,1.27
2022-10-11T13:37:21.713Z,1.10
2022-10-11T13:42:29.005Z,1.00
2022-10-11T13:47:33.219Z,1.15
2022-10-11T13:52:53.020Z,1.25
2022-10-11T13:57:56.825Z,1.20
2022-10-11T14:03:02.733Z,1.13
2022-10-11T14:08:22.265Z,0.85
2022-10-11T14:13:29.612Z,1.10
2022-10-11T14:18:46.069Z,0.70
2022-10-11T14:23:51.694Z,0.85
2022-10-11T14:28:57.977Z,1.30
2022-10-11T14:34:01.018Z,0.70
2022-10-11T14:39:20.948Z,0.80
2022-10-11T14:44:24.066Z,0.80
2022-10-11T14:49:28.886Z,0.93
2022-10-11T14:54:34.118Z,0.90
2022-10-11T14:59:38.131Z,0.93
2022-10-11T15:04:40.784Z,1.50
2022-10-11T15:09:44.881Z,1.00
2022-10-11T15:15:17.029Z,0.90
2022-10-11T15:20:30.948Z,0.90
2022-10-11T15:25:36.645Z,1.40
2022-10-11T15:30:41.617Z,0.95
2022-10-11T15:35:44.814Z,1.10
2022-10-11T15:40:52.242Z,0.93
2022-10-11T15:45:57.650Z,1.15
2022-10-11T15:51:00.369Z,0.95
2022-10-11T15:56:07.807Z,1.20
2022-10-11T16:01:14.046Z,0.80
2022-10-11T16:06:17.744Z,0.93
2022-10-11T16:11:21.952Z,0.95
2022-10-11T16:16:27.470Z,2.67
2022-10-11T16:21:29.935Z,1.10
2022-10-11T16:26:34.422Z,0.98
2022-10-11T16:31:37.035Z,1.20
2022-10-11T16:36:39.553Z,1.25
2022-10-11T16:41:44.661Z,0.90
2022-10-11T16:46:49.007Z,1.23
2022-10-11T16:51:58.771Z,1.63
2022-10-11T16:57:02.819Z,2.00
2022-10-11T17:02:06.751Z,1.70
2022-10-11T17:07:09.411Z,2.45
2022-10-11T17:12:15.678Z,2.50
2022-10-11T17:17:20.214Z,2.28
2022-10-11T17:22:25.046Z,2.43
2022-10-11T17:27:30.544Z,2.88
2022-10-11T17:32:38.335Z,2.00
2022-10-11T17:37:41.046Z,2.13
2022-10-11T17:43:12.861Z,2.00
2022-10-11T17:48:24.327Z,5.18
2022-10-11T17:53:29.689Z,2.72
2022-10-11T17:58:37.772Z,2.55
2022-10-11T18:03:51.414Z,2.28
2022-10-11T18:08:57.951Z,2.53
2022-10-11T18:14:05.555Z,16.17
2022-10-11T18:19:26.444Z,7.32
2022-10-11T18:24:34.060Z,3.67
2022-10-11T18:29:41.519Z,4.60
2022-10-11T18:34:47.610Z,4.22
2022-10-11T18:39:53.047Z,6.88
2022-10-11T18:45:02.056Z,3.55
2022-10-11T18:50:23.237Z,8.98
2022-10-11T18:55:40.992Z,4.10
2022-10-11T19:01:05.599Z,5.90
2022-10-11T19:06:26.747Z,6.95
2022-10-11T19:11:41.359Z,7.57
2022-10-11T19:17:04.804Z,9.30
2022-10-11T19:22:21.863Z,11.65
2022-10-11T19:27:35.479Z,5.15
2022-10-11T19:32:45.985Z,6.00
2022-10-11T19:37:51.586Z,6.13
2022-10-11T19:42:56.410Z,5.05
2022-10-11T19:48:15.247Z,4.53
2022-10-11T19:53:35.841Z,5.03
2022-10-11T20:04:50.675Z,5.55
2022-10-11T20:09:45.313Z,13.88
2022-10-11T20:14:51.943Z,6.18
2022-10-11T20:20:07.586Z,5.03
2022-10-11T20:25:14.019Z,4.05
2022-10-11T20:36:01.825Z,5.07
2022-10-11T20:41:10.220Z,5.10
2022-10-11T20:46:22.659Z,4.25
2022-10-11T20:51:47.240Z,5.63
2022-10-11T20:57:01.115Z,5.88
2022-10-11T21:02:16.656Z,5.57
2022-10-11T21:07:32.562Z,5.20
2022-10-11T21:12:40.677Z,4.97
2022-10-11T21:17:45.843Z,3.80
2022-10-11T21:22:55.317Z,5.75
2022-10-11T21:28:00.271Z,4.30
2022-10-11T21:33:02.897Z,5.10
2022-10-11T21:38:32.175Z,4.43
2022-10-11T21:43:36.197Z,3.05
2022-10-11T21:48:41.967Z,4.30
2022-10-11T21:53:49.266Z,3.85
2022-10-11T22:04:05.588Z,3.90
2022-10-11T22:09:09.853Z,3.28
2022-10-11T22:14:13.324Z,3.75
2022-10-11T22:19:15.804Z,2.80
2022-10-11T22:24:32.008Z,3.67
2022-10-11T22:29:34.593Z,4.43
2022-10-11T22:34:40.199Z,5.30
2022-10-11T22:39:51.439Z,3.60
2022-10-11T22:44:54.397Z,3.60
2022-10-11T22:49:57.065Z,4.18
2022-10-11T22:55:06.485Z,6.20
2022-10-11T23:00:10.641Z,4.88
2022-10-11T23:05:13.033Z,4.88
2022-10-11T23:10:24.070Z,6.38
2022-10-11T23:15:28.511Z,7.00
2022-10-11T23:20:31.141Z,3.92
2022-10-11T23:25:37.390Z,4.88
2022-10-11T23:30:40.233Z,5.35
2022-10-11T23:35:47.582Z,4.30
2022-10-11T23:40:59.400Z,6.13
2022-10-11T23:46:03.923Z,7.80
2022-10-11T23:51:11.228Z,6.68
